createdAt,value
2023-04-28T00:02:04.058Z,3.67
2023-04-28T00:04:31.329Z,3.70
2023-04-28T00:06:58.187Z,3.83
2023-04-28T00:09:24.868Z,3.72
2023-04-28T00:11:51.484Z,4.03
2023-04-28T00:14:18.424Z,3.55
2023-04-28T00:16:45.283Z,3.80
2023-04-28T00:19:12.285Z,3.50
2023-04-28T00:21:38.931Z,3.08
2023-04-28T00:24:05.910Z,3.45
2023-04-28T00:26:32.511Z,3.90
2023-04-28T00:28:59.036Z,3.30
2023-04-28T00:31:25.694Z,3.42
2023-04-28T00:33:52.327Z,3.75
2023-04-28T00:36:18.868Z,3.45
2023-04-28T00:38:45.415Z,3.38
2023-04-28T00:41:12.395Z,3.15
2023-04-28T00:43:49.015Z,3.65
2023-04-28T00:46:33.561Z,3.40
2023-04-28T00:49:00.227Z,3.67
2023-04-28T00:51:28.815Z,3.10
2023-04-28T00:53:56.575Z,3.58
2023-04-28T00:56:23.136Z,3.30
2023-04-28T00:58:49.740Z,3.47
2023-04-28T01:01:16.820Z,3.47
2023-04-28T01:03:44.073Z,3.72
2023-04-28T01:06:12.084Z,3.50
2023-04-28T01:08:39.240Z,3.47
2023-04-28T01:11:07.070Z,3.30
2023-04-28T01:13:33.759Z,3.63
2023-04-28T01:16:00.888Z,3.08
2023-04-28T01:18:27.705Z,3.65
2023-04-28T01:20:54.288Z,3.45
2023-04-28T01:23:20.985Z,3.58
2023-04-28T01:25:47.591Z,3.40
2023-04-28T01:28:14.244Z,4.50
2023-04-28T01:30:41.041Z,4.53
2023-04-28T01:33:07.877Z,4.13
2023-04-28T01:35:34.543Z,3.80
2023-04-28T01:38:01.264Z,3.70
2023-04-28T01:40:28.001Z,3.50
2023-04-28T01:42:54.623Z,3.60
2023-04-28T01:45:21.244Z,3.53
2023-04-28T01:47:47.913Z,3.45
2023-04-28T01:50:14.586Z,3.55
2023-04-28T01:52:41.138Z,3.78
2023-04-28T01:55:08.276Z,3.38
2023-04-28T01:57:35.988Z,3.22
2023-04-28T02:00:03.695Z,3.70
2023-04-28T02:02:30.442Z,3.67
2023-04-28T02:04:58.175Z,3.80
2023-04-28T02:07:24.919Z,4.50
2023-04-28T02:09:51.414Z,4.07
2023-04-28T02:12:17.957Z,3.70
2023-04-28T02:14:44.814Z,3.53
2023-04-28T02:17:11.444Z,3.72
2023-04-28T02:19:38.580Z,3.53
2023-04-28T02:22:05.158Z,3.60
2023-04-28T02:24:36.293Z,3.72
2023-04-28T02:27:04.376Z,4.03
2023-04-28T02:29:31.834Z,4.35
2023-04-28T02:31:58.489Z,4.05
2023-04-28T02:34:25.147Z,5.18
2023-04-28T02:36:51.737Z,4.20
2023-04-28T02:39:18.644Z,4.43
2023-04-28T02:41:45.619Z,4.72
2023-04-28T02:44:12.230Z,4.85
2023-04-28T02:46:38.919Z,4.38
2023-04-28T02:49:05.643Z,4.93
2023-04-28T02:51:32.793Z,5.13
2023-04-28T02:53:59.386Z,5.30
2023-04-28T02:56:26.050Z,6.22
2023-04-28T02:58:52.865Z,5.60
2023-04-28T03:01:19.499Z,5.35
2023-04-28T03:03:46.363Z,5.68
2023-04-28T03:06:13.079Z,5.60
2023-04-28T03:08:39.780Z,5.78
2023-04-28T03:11:06.514Z,5.57
2023-04-28T03:13:33.055Z,6.18
2023-04-28T03:15:59.743Z,6.13
2023-04-28T03:18:26.325Z,6.18
2023-04-28T03:20:53.095Z,6.03
2023-04-28T03:23:19.627Z,5.80
2023-04-28T03:25:46.128Z,5.68
2023-04-28T03:28:12.825Z,6.07
2023-04-28T03:30:39.328Z,5.40
2023-04-28T03:33:06.195Z,5.70
2023-04-28T03:35:32.960Z,5.53
2023-04-28T03:37:59.514Z,5.60
2023-04-28T03:40:26.101Z,5.70
2023-04-28T03:42:52.704Z,5.68
2023-04-28T03:45:19.355Z,6.28
2023-04-28T03:47:46.185Z,5.75
2023-04-28T03:50:12.831Z,5.95
2023-04-28T03:52:39.395Z,5.28
2023-04-28T03:55:06.496Z,6.30
2023-04-28T03:57:33.027Z,5.80
2023-04-28T03:59:59.686Z,6.07
2023-04-28T04:02:26.387Z,6.00
2023-04-28T04:04:53.456Z,5.68
2023-04-28T04:07:21.651Z,6.13
2023-04-28T04:09:48.223Z,6.28
2023-04-28T04:12:14.775Z,6.15
2023-04-28T04:14:41.299Z,5.97
2023-04-28T04:17:08.116Z,6.88
2023-04-28T04:19:34.655Z,6.10
2023-04-28T04:22:01.269Z,6.85
2023-04-28T04:24:27.891Z,6.80
2023-04-28T04:26:54.462Z,5.88
2023-04-28T04:29:20.983Z,7.07
2023-04-28T04:31:48.121Z,6.80
2023-04-28T04:34:15.139Z,6.72
2023-04-28T04:36:41.915Z,7.07
2023-04-28T04:39:08.557Z,7.35
2023-04-28T04:41:35.366Z,6.90
2023-04-28T04:44:01.929Z,6.35
2023-04-28T04:46:29.872Z,6.82
2023-04-28T04:48:56.823Z,7.03
2023-04-28T04:51:23.459Z,6.68
2023-04-28T04:53:50.011Z,7.28
2023-04-28T04:56:16.810Z,6.97
2023-04-28T04:58:46.900Z,6.13
2023-04-28T05:01:13.473Z,6.55
2023-04-28T05:03:40.346Z,6.65
2023-04-28T05:06:07.099Z,7.57
2023-04-28T05:08:33.654Z,7.28
2023-04-28T05:11:00.185Z,7.75
2023-04-28T05:13:26.847Z,6.95
2023-04-28T05:15:53.477Z,7.22
2023-04-28T05:18:20.102Z,7.07
2023-04-28T05:20:46.621Z,7.55
2023-04-28T05:23:13.233Z,7.40
2023-04-28T05:25:39.863Z,7.55
2023-04-28T05:28:09.688Z,6.95
2023-04-28T05:30:36.332Z,7.75
2023-04-28T05:33:02.968Z,7.70
2023-04-28T05:35:31.452Z,7.75
2023-04-28T05:37:58.899Z,8.13
2023-04-28T05:40:26.269Z,7.45
2023-04-28T05:42:53.253Z,7.80
2023-04-28T05:45:19.976Z,7.93
2023-04-28T05:47:46.653Z,7.90
2023-04-28T05:50:13.286Z,7.75
2023-04-28T05:52:39.947Z,8.07
2023-04-28T05:55:07.078Z,8.20
2023-04-28T05:57:45.390Z,8.18
2023-04-28T06:00:16.756Z,7.80
2023-04-28T06:02:43.682Z,9.48
2023-04-28T06:05:11.023Z,9.25
2023-04-28T06:07:37.804Z,8.40
2023-04-28T06:10:05.789Z,8.32
2023-04-28T06:12:32.465Z,8.90
2023-04-28T06:14:59.052Z,8.68
2023-04-28T06:17:25.835Z,9.30
2023-04-28T06:19:54.331Z,8.77
2023-04-28T06:22:20.941Z,8.80
2023-04-28T06:24:47.761Z,8.90
2023-04-28T06:27:14.503Z,9.30
2023-04-28T06:29:41.148Z,9.45
2023-04-28T06:32:07.969Z,8.52
2023-04-28T06:34:35.436Z,8.77
2023-04-28T06:37:02.084Z,9.85
2023-04-28T06:39:29.182Z,9.50
2023-04-28T06:41:56.027Z,9.32
2023-04-28T06:44:22.974Z,10.45
2023-04-28T06:46:49.533Z,10.73
2023-04-28T06:49:16.320Z,10.25
2023-04-28T06:51:43.203Z,11.25
2023-04-28T06:54:09.921Z,9.68
2023-04-28T06:56:36.577Z,9.40
2023-04-28T06:59:03.300Z,9.77
2023-04-28T07:01:32.133Z,10.30
2023-04-28T07:03:59.133Z,11.20
2023-04-28T07:06:27.381Z,9.60
2023-04-28T07:08:54.215Z,9.48
2023-04-28T07:11:21.414Z,10.45
2023-04-28T07:13:49.421Z,10.05
2023-04-28T07:16:16.447Z,10.38
2023-04-28T07:18:43.188Z,10.10
2023-04-28T07:21:09.718Z,9.95
2023-04-28T07:23:38.567Z,10.48
2023-04-28T07:26:05.377Z,11.43
2023-04-28T07:28:32.153Z,10.93
2023-04-28T07:30:58.807Z,11.25
2023-04-28T07:33:25.669Z,11.50
2023-04-28T07:35:53.225Z,11.15
2023-04-28T07:38:20.448Z,11.20
2023-04-28T07:40:47.199Z,12.15
2023-04-28T07:43:14.429Z,12.27
2023-04-28T07:45:41.118Z,11.40
2023-04-28T07:48:08.296Z,11.52
2023-04-28T07:50:35.080Z,11.10
2023-04-28T07:53:01.698Z,11.57
2023-04-28T07:55:28.910Z,14.23
2023-04-28T07:57:55.599Z,13.68
2023-04-28T08:00:22.261Z,12.00
2023-04-28T08:02:49.071Z,12.35
2023-04-28T08:05:17.190Z,11.63
2023-04-28T08:07:43.948Z,11.85
2023-04-28T08:10:11.571Z,12.10
2023-04-28T08:12:38.519Z,13.23
2023-04-28T08:15:05.596Z,13.73
2023-04-28T08:17:32.128Z,13.30
2023-04-28T08:19:59.217Z,13.20
2023-04-28T08:22:25.896Z,12.23
2023-04-28T08:24:52.610Z,13.15
2023-04-28T08:27:19.321Z,14.57
2023-04-28T08:29:45.977Z,13.50
2023-04-28T08:32:12.728Z,12.15
2023-04-28T08:34:39.296Z,12.40
2023-04-28T08:37:06.844Z,14.60
2023-04-28T08:39:35.048Z,14.75
2023-04-28T08:42:04.738Z,13.27
2023-04-28T08:44:39.396Z,11.77
2023-04-28T08:47:13.523Z,13.40
2023-04-28T08:49:41.428Z,13.02
2023-04-28T08:52:17.245Z,14.07
2023-04-28T08:54:44.762Z,15.02
2023-04-28T08:57:11.610Z,15.30
2023-04-28T08:59:41.767Z,14.07
2023-04-28T09:02:09.369Z,15.20
2023-04-28T09:04:36.866Z,15.13
2023-04-28T09:07:03.826Z,15.35
2023-04-28T09:09:34.202Z,15.02
2023-04-28T09:12:04.644Z,15.05
2023-04-28T09:14:33.100Z,14.57
2023-04-28T09:17:00.264Z,15.10
2023-04-28T09:19:35.916Z,14.95
2023-04-28T09:22:17.545Z,14.85
2023-04-28T09:24:44.720Z,14.95
2023-04-28T09:27:11.792Z,15.15
2023-04-28T09:29:39.504Z,13.82
2023-04-28T09:32:23.084Z,13.77
2023-04-28T09:34:56.406Z,14.88
2023-04-28T09:37:30.520Z,14.38
2023-04-28T09:40:03.364Z,14.32
2023-04-28T09:42:44.047Z,13.38
2023-04-28T09:45:14.645Z,14.45
2023-04-28T09:47:46.811Z,13.55
2023-04-28T09:50:15.876Z,14.23
2023-04-28T09:52:57.010Z,13.68
2023-04-28T09:55:25.245Z,12.30
2023-04-28T09:57:55.006Z,14.25
2023-04-28T10:00:23.415Z,13.45
2023-04-28T10:02:51.896Z,13.98
2023-04-28T10:05:20.897Z,15.18
2023-04-28T10:07:47.889Z,12.70
2023-04-28T10:10:15.436Z,15.18
2023-04-28T10:12:42.427Z,16.58
2023-04-28T10:15:10.280Z,16.15
2023-04-28T10:17:37.180Z,19.83
2023-04-28T10:20:05.019Z,17.20
2023-04-28T10:22:50.439Z,16.20
2023-04-28T10:25:25.526Z,16.15
2023-04-28T10:27:53.075Z,19.42
2023-04-28T10:30:28.303Z,18.55
2023-04-28T10:33:14.546Z,17.35
2023-04-28T10:35:45.782Z,18.27
2023-04-28T10:38:17.050Z,17.10
2023-04-28T10:40:45.991Z,16.73
2023-04-28T10:43:26.995Z,16.48
2023-04-28T10:45:56.517Z,16.40
2023-04-28T10:48:46.629Z,17.90
2023-04-28T10:51:16.306Z,16.48
2023-04-28T10:53:46.869Z,15.18
2023-04-28T10:56:27.506Z,17.95
2023-04-28T10:58:56.363Z,18.45
2023-04-28T11:01:34.608Z,16.98
2023-04-28T11:04:13.850Z,17.42
2023-04-28T11:07:10.662Z,17.85
2023-04-28T11:09:37.209Z,17.35
2023-04-28T11:12:10.453Z,18.02
2023-04-28T11:14:40.179Z,18.50
2023-04-28T11:17:08.786Z,16.05
2023-04-28T11:19:39.291Z,15.52
2023-04-28T11:22:13.836Z,15.68
2023-04-28T11:24:40.748Z,16.38
2023-04-28T11:27:07.628Z,15.02
2023-04-28T11:29:38.908Z,15.48
2023-04-28T11:32:10.133Z,16.20
2023-04-28T11:34:37.945Z,15.23
2023-04-28T11:37:07.045Z,14.50
2023-04-28T11:39:34.567Z,13.05
2023-04-28T11:42:03.171Z,14.85
2023-04-28T11:44:31.184Z,14.50
2023-04-28T11:47:01.429Z,14.27
2023-04-28T11:49:41.373Z,14.15
2023-04-28T11:52:09.212Z,15.05
2023-04-28T11:54:37.258Z,13.82
2023-04-28T11:57:04.767Z,12.98
2023-04-28T11:59:35.705Z,12.85
2023-04-28T12:02:07.547Z,13.52
2023-04-28T12:04:37.512Z,13.00
2023-04-28T12:07:16.216Z,13.25
2023-04-28T12:09:45.340Z,12.50
2023-04-28T12:12:40.169Z,12.48
2023-04-28T12:15:12.642Z,11.57
2023-04-28T12:17:41.349Z,10.57
2023-04-28T12:20:11.358Z,10.73
2023-04-28T12:22:47.382Z,10.70
2023-04-28T12:25:17.173Z,10.20
2023-04-28T12:28:08.343Z,9.77
2023-04-28T12:30:43.833Z,9.48
2023-04-28T12:33:24.999Z,8.60
2023-04-28T12:35:52.210Z,9.02
2023-04-28T12:38:18.919Z,8.32
2023-04-28T12:40:45.797Z,7.95
2023-04-28T12:43:12.484Z,7.07
2023-04-28T12:45:39.229Z,7.72
2023-04-28T12:48:06.456Z,6.28
2023-04-28T12:50:33.357Z,6.70
2023-04-28T12:53:00.050Z,6.15
2023-04-28T12:55:27.071Z,6.80
2023-04-28T12:57:54.988Z,6.18
2023-04-28T13:00:23.416Z,6.47
2023-04-28T13:02:51.353Z,6.18
2023-04-28T13:05:19.441Z,5.68
2023-04-28T13:07:46.310Z,6.65
2023-04-28T13:10:13.643Z,6.38
2023-04-28T13:12:41.242Z,5.70
2023-04-28T13:15:08.504Z,4.90
2023-04-28T13:17:35.412Z,4.60
2023-04-28T13:20:03.860Z,4.40
2023-04-28T13:22:30.632Z,4.05
2023-04-28T13:24:57.630Z,5.40
2023-04-28T13:27:24.377Z,4.70
2023-04-28T13:29:51.033Z,3.83
2023-04-28T13:32:18.047Z,4.15
2023-04-28T13:34:44.983Z,4.10
2023-04-28T13:37:11.944Z,3.67
2023-04-28T13:39:38.592Z,3.85
2023-04-28T13:42:06.500Z,3.75
2023-04-28T13:44:33.134Z,4.10
2023-04-28T13:46:59.959Z,4.10
2023-04-28T13:49:26.493Z,4.32
2023-04-28T13:51:53.027Z,3.83
2023-04-28T13:54:19.629Z,3.38
2023-04-28T13:56:46.621Z,3.60
2023-04-28T13:59:13.459Z,3.90
2023-04-28T14:01:40.089Z,3.90
2023-04-28T14:04:07.210Z,4.38
2023-04-28T14:06:34.955Z,3.40
2023-04-28T14:09:02.703Z,3.47
2023-04-28T14:11:29.399Z,3.38
2023-04-28T14:13:56.272Z,3.30
2023-04-28T14:16:22.979Z,3.75
2023-04-28T14:18:49.715Z,3.50
2023-04-28T14:21:16.483Z,3.80
2023-04-28T14:23:43.086Z,3.22
2023-04-28T14:26:09.806Z,4.00
2023-04-28T14:28:37.307Z,3.60
2023-04-28T14:31:08.551Z,4.20
2023-04-28T14:33:35.423Z,3.70
2023-04-28T14:36:02.330Z,4.13
2023-04-28T14:38:30.604Z,4.10
2023-04-28T14:40:57.640Z,4.18
2023-04-28T14:43:24.790Z,4.57
2023-04-28T14:45:51.960Z,4.10
2023-04-28T14:48:19.117Z,4.28
2023-04-28T14:50:46.152Z,3.90
2023-04-28T14:53:12.870Z,3.83
2023-04-28T14:55:39.574Z,4.50
2023-04-28T14:58:06.181Z,3.53
2023-04-28T15:00:33.201Z,3.40
2023-04-28T15:03:00.041Z,2.80
2023-04-28T15:05:27.077Z,2.60
2023-04-28T15:07:53.762Z,2.40
2023-04-28T15:10:20.618Z,2.65
2023-04-28T15:12:48.774Z,2.67
2023-04-28T15:15:15.531Z,2.05
2023-04-28T15:17:42.963Z,2.40
2023-04-28T15:20:09.875Z,2.40
2023-04-28T15:22:37.330Z,2.10
2023-04-28T15:25:04.195Z,2.35
2023-04-28T15:27:31.021Z,2.00
2023-04-28T15:29:57.821Z,1.88
2023-04-28T15:32:24.547Z,2.60
2023-04-28T15:34:51.677Z,2.30
2023-04-28T15:37:47.590Z,2.50
2023-04-28T15:40:16.553Z,2.30
2023-04-28T15:42:48.619Z,2.20
2023-04-28T15:45:16.364Z,1.90
2023-04-28T15:47:45.122Z,2.03
2023-04-28T15:50:12.254Z,1.63
2023-04-28T15:52:40.765Z,1.85
2023-04-28T15:55:08.415Z,2.00
2023-04-28T15:57:36.214Z,1.80
2023-04-28T16:00:03.680Z,2.08
2023-04-28T16:02:32.409Z,1.40
2023-04-28T16:05:05.167Z,1.90
2023-04-28T16:07:37.955Z,1.75
2023-04-28T16:10:07.758Z,2.53
2023-04-28T16:12:35.607Z,9.70
2023-04-28T16:15:03.397Z,3.42
2023-04-28T16:17:30.891Z,2.53
2023-04-28T16:19:57.534Z,5.22
2023-04-28T16:22:25.545Z,2.70
2023-04-28T16:24:54.175Z,1.80
2023-04-28T16:27:20.844Z,1.90
2023-04-28T16:29:47.511Z,1.60
2023-04-28T16:32:14.442Z,1.83
2023-04-28T16:34:41.424Z,1.88
2023-04-28T16:37:08.466Z,1.95
2023-04-28T16:39:35.066Z,1.85
2023-04-28T16:42:03.671Z,1.63
2023-04-28T16:44:30.556Z,1.83
2023-04-28T16:47:00.592Z,1.85
2023-04-28T16:49:27.205Z,2.20
2023-04-28T16:51:58.398Z,2.40
2023-04-28T16:54:28.690Z,2.22
2023-04-28T16:56:55.856Z,2.03
2023-04-28T16:59:22.953Z,2.10
2023-04-28T17:01:49.587Z,1.80
2023-04-28T17:04:17.173Z,1.65
2023-04-28T17:06:44.179Z,1.80
2023-04-28T17:09:11.290Z,2.17
2023-04-28T17:11:37.917Z,1.90
2023-04-28T17:14:04.959Z,1.40
2023-04-28T17:16:32.691Z,1.58
2023-04-28T17:19:00.240Z,1.50
2023-04-28T17:21:29.120Z,1.77
2023-04-28T17:23:57.508Z,1.58
2023-04-28T17:26:25.228Z,1.77
2023-04-28T17:28:52.180Z,1.55
2023-04-28T17:31:19.380Z,1.50
2023-04-28T17:33:46.348Z,1.75
2023-04-28T17:36:12.961Z,1.40
2023-04-28T17:38:39.612Z,1.48
2023-04-28T17:41:06.260Z,2.00
2023-04-28T17:43:33.733Z,1.55
2023-04-28T17:46:03.065Z,1.90
2023-04-28T17:48:29.813Z,1.77
2023-04-28T17:50:56.616Z,1.70
2023-04-28T17:53:23.250Z,1.70
2023-04-28T17:55:54.010Z,1.70
2023-04-28T17:58:22.965Z,1.83
2023-04-28T18:00:49.712Z,1.70
2023-04-28T18:03:16.514Z,2.30
2023-04-28T18:05:43.167Z,1.80
2023-04-28T18:08:10.460Z,1.40
2023-04-28T18:10:37.278Z,1.77
2023-04-28T18:13:06.129Z,1.83
2023-04-28T18:15:34.157Z,1.55
2023-04-28T18:18:00.868Z,1.60
2023-04-28T18:20:27.550Z,1.80
2023-04-28T18:22:54.304Z,1.63
2023-04-28T18:25:20.910Z,1.60
2023-04-28T18:27:48.711Z,1.60
2023-04-28T18:30:15.409Z,1.50
2023-04-28T18:32:42.282Z,1.70
2023-04-28T18:35:08.988Z,1.65
2023-04-28T18:37:36.921Z,1.55
2023-04-28T18:40:04.198Z,1.50
2023-04-28T18:42:32.544Z,1.63
2023-04-28T18:44:59.196Z,1.95
2023-04-28T18:47:27.125Z,1.77
2023-04-28T18:49:58.368Z,2.28
2023-04-28T18:52:27.516Z,1.92
2023-04-28T18:55:01.236Z,2.35
2023-04-28T18:57:27.996Z,2.40
2023-04-28T19:00:06.221Z,2.83
2023-04-28T19:02:34.356Z,2.75
2023-04-28T19:05:01.211Z,2.53
2023-04-28T19:07:29.459Z,2.30
2023-04-28T19:12:41.893Z,2.30
2023-04-28T19:15:27.986Z,2.20
2023-04-28T19:18:00.320Z,2.78
2023-04-28T19:20:26.955Z,2.30
2023-04-28T19:23:20.519Z,2.53
2023-04-28T19:26:14.245Z,3.10
2023-04-28T19:28:45.631Z,2.35
2023-04-28T19:31:12.452Z,3.05
2023-04-28T19:33:43.043Z,2.95
2023-04-28T19:36:16.243Z,3.33
2023-04-28T19:38:49.857Z,3.42
2023-04-28T19:41:19.603Z,3.78
2023-04-28T19:43:48.739Z,4.22
2023-04-28T19:46:19.793Z,5.07
2023-04-28T19:48:51.616Z,6.10
2023-04-28T19:51:25.259Z,5.78
2023-04-28T19:54:10.302Z,5.57
2023-04-28T19:56:37.127Z,5.38
2023-04-28T19:59:07.240Z,5.55
2023-04-28T20:02:02.483Z,5.15
2023-04-28T20:07:48.016Z,4.63
2023-04-28T20:10:17.844Z,4.82
2023-04-28T20:12:44.405Z,5.25
2023-04-28T20:15:11.514Z,4.53
2023-04-28T20:17:38.127Z,4.38
2023-04-28T20:20:07.545Z,4.68
2023-04-28T20:22:35.279Z,5.15
2023-04-28T20:25:05.777Z,4.95
2023-04-28T20:27:35.652Z,5.15
2023-04-28T20:30:03.644Z,4.35
2023-04-28T20:32:30.862Z,4.90
2023-04-28T20:34:57.472Z,4.47
2023-04-28T20:37:26.202Z,4.30
2023-04-28T20:39:53.125Z,10.13
2023-04-28T20:42:19.834Z,24.63
2023-04-28T20:44:46.501Z,12.15
2023-04-28T20:47:13.794Z,5.97
2023-04-28T20:49:40.419Z,4.32
2023-04-28T20:52:07.148Z,3.20
2023-04-28T20:54:35.879Z,3.15
2023-04-28T20:57:04.415Z,2.70
2023-04-28T20:59:32.829Z,3.75
2023-04-28T21:02:14.705Z,3.40
2023-04-28T21:04:41.401Z,4.68
2023-04-28T21:07:07.932Z,4.80
2023-04-28T21:09:35.811Z,4.35
2023-04-28T21:12:02.737Z,3.97
2023-04-28T21:14:29.263Z,4.78
2023-04-28T21:16:56.211Z,4.68
2023-04-28T21:19:23.309Z,5.13
2023-04-28T21:21:49.859Z,3.85
2023-04-28T21:24:16.514Z,3.38
2023-04-28T21:26:43.070Z,3.30
2023-04-28T21:29:09.769Z,2.95
2023-04-28T21:31:36.390Z,2.90
2023-04-28T21:34:03.151Z,3.00
2023-04-28T21:36:30.479Z,2.50
2023-04-28T21:38:57.033Z,2.80
2023-04-28T21:41:25.260Z,2.72
2023-04-28T21:43:52.272Z,2.30
2023-04-28T21:46:19.055Z,3.03
2023-04-28T21:48:46.095Z,2.30
2023-04-28T21:51:14.241Z,2.00
2023-04-28T21:53:40.987Z,2.58
2023-04-28T21:56:07.795Z,2.45
2023-04-28T21:58:35.744Z,2.75
2023-04-28T22:01:03.730Z,2.90
2023-04-28T22:03:31.334Z,2.45
2023-04-28T22:05:57.947Z,2.60
2023-04-28T22:08:24.696Z,2.70
2023-04-28T22:10:51.441Z,2.67
2023-04-28T22:13:17.986Z,2.30
2023-04-28T22:15:44.605Z,2.45
2023-04-28T22:18:11.233Z,2.67
2023-04-28T22:20:38.279Z,2.70
2023-04-28T22:23:04.920Z,2.50
2023-04-28T22:25:31.757Z,2.40
2023-04-28T22:27:58.289Z,2.50
2023-04-28T22:30:26.091Z,2.30
2023-04-28T22:32:53.142Z,2.40
2023-04-28T22:35:19.789Z,2.40
2023-04-28T22:37:46.348Z,2.17
2023-04-28T22:40:13.082Z,2.50
2023-04-28T22:42:41.051Z,2.35
2023-04-28T22:45:10.172Z,2.35
2023-04-28T22:47:38.405Z,2.80
2023-04-28T22:50:06.291Z,2.85
2023-04-28T22:52:34.272Z,2.45
2023-04-28T22:55:01.427Z,2.25
2023-04-28T22:57:28.544Z,2.50
2023-04-28T22:59:55.274Z,2.67
2023-04-28T23:02:22.859Z,2.15
2023-04-28T23:04:49.749Z,2.20
2023-04-28T23:07:16.615Z,2.30
2023-04-28T23:09:43.192Z,2.58
2023-04-28T23:12:09.797Z,2.30
2023-04-28T23:14:36.487Z,2.25
2023-04-28T23:17:03.613Z,2.25
2023-04-28T23:19:30.338Z,2.47
2023-04-28T23:21:56.920Z,2.63
2023-04-28T23:24:23.457Z,2.28
2023-04-28T23:26:50.082Z,2.20
2023-04-28T23:29:17.245Z,2.40
2023-04-28T23:31:43.820Z,2.33
2023-04-28T23:34:10.408Z,2.50
2023-04-28T23:36:37.722Z,2.22
2023-04-28T23:39:04.409Z,2.50
2023-04-28T23:41:31.052Z,2.60
2023-04-28T23:43:57.838Z,2.28
2023-04-28T23:46:24.479Z,2.50
2023-04-28T23:48:51.336Z,2.50
2023-04-28T23:51:18.676Z,2.40
2023-04-28T23:53:45.286Z,2.58
2023-04-28T23:56:11.890Z,2.35
2023-04-28T23:58:38.781Z,2.58
